createdAt,value
2019-03-13T00:00:15.338Z,98960.87
2019-03-13T00:02:49.051Z,98956.89
2019-03-13T00:05:22.858Z,98940.84
2019-03-13T00:07:56.440Z,98943.43
2019-03-13T00:10:32.579Z,98933.52
2019-03-13T00:13:05.798Z,98921.12
2019-03-13T00:15:39.491Z,98912.47
2019-03-13T00:18:13.306Z,98900.04
2019-03-13T00:20:47.213Z,98904.05
2019-03-13T00:23:19.951Z,98902.67
2019-03-13T00:25:54.470Z,98893.84
2019-03-13T00:28:28.654Z,98887.21
2019-03-13T00:31:02.386Z,98885.22
2019-03-13T00:33:35.829Z,98881.44
2019-03-13T00:36:09.151Z,98878.81
2019-03-13T00:38:43.109Z,98870.77
2019-03-13T00:41:17.378Z,98862.30
2019-03-13T00:43:51.594Z,98858.81
2019-03-13T00:46:24.535Z,98852.64
2019-03-13T00:48:58.799Z,98845.48
2019-03-13T00:51:32.996Z,98839.03
2019-03-13T00:54:06.001Z,98841.94
2019-03-13T00:56:40.213Z,98837.24
2019-03-13T00:59:14.636Z,98834.44
2019-03-13T01:01:56.416Z,98815.86
2019-03-13T01:04:40.381Z,98818.63
2019-03-13T01:07:14.693Z,98806.61
2019-03-13T01:09:49.005Z,98803.96
2019-03-13T01:12:23.132Z,98797.65
2019-03-13T01:14:57.370Z,98793.35
2019-03-13T01:17:31.557Z,98790.95
2019-03-13T01:20:04.829Z,98782.74
2019-03-13T01:22:39.059Z,98772.47
2019-03-13T01:25:13.076Z,98773.50
2019-03-13T01:27:47.294Z,98770.07
2019-03-13T01:30:21.475Z,98777.07
2019-03-13T01:33:03.159Z,98769.93
2019-03-13T01:35:40.383Z,98765.28
2019-03-13T01:38:14.016Z,98750.62
2019-03-13T01:40:48.029Z,98750.11
2019-03-13T01:43:21.963Z,98746.13
2019-03-13T01:45:57.163Z,98743.64
2019-03-13T01:48:31.204Z,98735.84
2019-03-13T01:51:04.809Z,98734.77
2019-03-13T01:53:38.905Z,98729.97
2019-03-13T01:56:13.139Z,98723.63
2019-03-13T01:58:47.132Z,98731.19
2019-03-13T02:01:21.160Z,98727.55
2019-03-13T02:03:54.777Z,98736.75
2019-03-13T02:06:28.860Z,98730.78
2019-03-13T02:09:02.812Z,98727.05
2019-03-13T02:11:36.818Z,98723.80
2019-03-13T02:14:10.501Z,98722.23
2019-03-13T02:16:44.532Z,98717.91
2019-03-13T02:19:19.237Z,98717.57
2019-03-13T02:21:53.236Z,98707.95
2019-03-13T02:24:27.276Z,98703.21
2019-03-13T02:27:01.860Z,98707.20
2019-03-13T02:29:35.895Z,98698.84
2019-03-13T02:32:09.602Z,98690.45
2019-03-13T02:34:43.730Z,98688.55
2019-03-13T02:37:17.580Z,98700.31
2019-03-13T02:39:51.624Z,98694.73
2019-03-13T02:42:25.272Z,98694.83
2019-03-13T02:44:58.944Z,98667.78
2019-03-13T02:47:33.358Z,98682.45
2019-03-13T02:50:07.231Z,98670.10
2019-03-13T02:52:40.990Z,98662.27
2019-03-13T02:55:14.264Z,98661.52
2019-03-13T02:57:48.417Z,98662.09
2019-03-13T03:00:26.704Z,98659.52
2019-03-13T03:03:02.454Z,98649.23
2019-03-13T03:05:36.168Z,98651.98
2019-03-13T03:08:10.147Z,98648.41
2019-03-13T03:10:44.393Z,98640.83
2019-03-13T03:13:18.518Z,98643.31
2019-03-13T03:15:52.734Z,98635.77
2019-03-13T03:18:26.311Z,98626.88
2019-03-13T03:21:00.476Z,98617.42
2019-03-13T03:23:34.153Z,98615.84
2019-03-13T03:26:08.011Z,98598.93
2019-03-13T03:28:41.654Z,98597.66
2019-03-13T03:31:15.947Z,98590.60
2019-03-13T03:34:05.182Z,98595.52
2019-03-13T03:36:38.449Z,98591.34
2019-03-13T03:39:12.295Z,98589.38
2019-03-13T03:41:46.324Z,98590.53
2019-03-13T03:44:20.355Z,98586.86
2019-03-13T03:46:54.478Z,98586.52
2019-03-13T03:49:29.312Z,98585.02
2019-03-13T03:52:03.403Z,98575.37
2019-03-13T03:54:37.007Z,98580.27
2019-03-13T03:57:11.223Z,98576.13
2019-03-13T03:59:44.785Z,98563.84
2019-03-13T04:02:18.411Z,98559.59
2019-03-13T04:04:52.738Z,98561.59
2019-03-13T04:07:26.834Z,98559.42
2019-03-13T04:10:00.780Z,98563.58
2019-03-13T04:12:34.765Z,98562.25
2019-03-13T04:15:08.279Z,98552.11
2019-03-13T04:17:42.308Z,98544.48
2019-03-13T04:20:15.182Z,98540.38
2019-03-13T04:22:48.866Z,98535.28
2019-03-13T04:25:53.304Z,98535.34
2019-03-13T04:28:27.300Z,98539.00
2019-03-13T04:31:01.012Z,98555.93
2019-03-13T04:33:34.139Z,98533.53
2019-03-13T04:36:08.453Z,98531.94
2019-03-13T04:38:42.524Z,98526.02
2019-03-13T04:41:16.552Z,98535.31
2019-03-13T04:43:50.667Z,98543.84
2019-03-13T04:46:24.264Z,98547.17
2019-03-13T04:48:58.479Z,98546.77
2019-03-13T04:51:32.581Z,98547.47
2019-03-13T04:54:06.197Z,98552.63
2019-03-13T04:56:41.407Z,98539.39
2019-03-13T04:59:15.429Z,98524.38
2019-03-13T05:01:49.252Z,98513.88
2019-03-13T05:04:23.252Z,98520.01
2019-03-13T05:06:57.382Z,98521.47
2019-03-13T05:09:41.622Z,98510.50
2019-03-13T05:12:15.217Z,98498.52
2019-03-13T05:14:49.244Z,98473.69
2019-03-13T05:17:23.342Z,98494.09
2019-03-13T05:19:57.369Z,98493.69
2019-03-13T05:22:31.471Z,98497.89
2019-03-13T05:25:05.208Z,98498.70
2019-03-13T05:27:39.217Z,98507.52
2019-03-13T05:30:13.103Z,98504.34
2019-03-13T05:32:47.962Z,98514.78
2019-03-13T05:35:22.037Z,98506.31
2019-03-13T05:37:57.121Z,98503.80
2019-03-13T05:40:31.836Z,98504.86
2019-03-13T05:43:05.515Z,98493.03
2019-03-13T05:45:40.013Z,98489.00
2019-03-13T05:48:14.139Z,98496.30
2019-03-13T05:50:48.887Z,98499.82
2019-03-13T05:53:21.737Z,98501.39
2019-03-13T05:55:55.183Z,98515.46
2019-03-13T05:58:29.385Z,98513.78
2019-03-13T06:01:02.444Z,98527.56
2019-03-13T06:03:36.646Z,98531.03
2019-03-13T06:06:10.936Z,98513.97
2019-03-13T06:08:45.784Z,98496.73
2019-03-13T06:11:20.485Z,98509.06
2019-03-13T06:13:54.578Z,98512.46
2019-03-13T06:16:28.607Z,98537.36
2019-03-13T06:19:02.786Z,98515.02
2019-03-13T06:21:36.397Z,98544.05
2019-03-13T06:24:10.172Z,98545.37
2019-03-13T06:26:44.356Z,98539.88
2019-03-13T06:29:17.812Z,98545.91
2019-03-13T06:31:51.026Z,98529.75
2019-03-13T06:34:25.216Z,98576.78
2019-03-13T06:36:58.896Z,98594.62
2019-03-13T06:39:32.671Z,98574.55
2019-03-13T06:42:05.631Z,98574.47
2019-03-13T06:44:38.678Z,98599.72
2019-03-13T06:47:12.453Z,98599.23
2019-03-13T06:49:46.237Z,98598.96
2019-03-13T06:52:19.846Z,98599.37
2019-03-13T06:54:54.602Z,98608.33
2019-03-13T06:57:28.693Z,98607.66
2019-03-13T07:00:30.193Z,98624.24
2019-03-13T07:03:15.457Z,98622.76
2019-03-13T07:06:10.856Z,98625.89
2019-03-13T07:09:12.468Z,98632.57
2019-03-13T07:12:08.559Z,98627.70
2019-03-13T07:14:57.463Z,98650.65
2019-03-13T07:17:48.532Z,98665.36
2019-03-13T07:20:43.995Z,98662.98
2019-03-13T07:23:34.054Z,98651.23
2019-03-13T07:26:32.107Z,98648.02
2019-03-13T07:29:23.816Z,98665.15
2019-03-13T07:32:09.408Z,98679.20
2019-03-13T07:34:52.511Z,98680.02
2019-03-13T07:37:38.428Z,98674.34
2019-03-13T07:40:36.679Z,98680.17
2019-03-13T07:43:33.642Z,98687.61
2019-03-13T07:46:28.629Z,98681.67
2019-03-13T07:49:17.764Z,98681.23
2019-03-13T07:52:25.456Z,98706.45
2019-03-13T07:55:24.169Z,98711.98
2019-03-13T07:58:25.021Z,98690.11
2019-03-13T08:01:15.142Z,98696.64
2019-03-13T08:03:53.861Z,98699.25
2019-03-13T08:06:58.442Z,98706.78
2019-03-13T08:09:50.679Z,98712.04
2019-03-13T08:12:43.080Z,98719.03
2019-03-13T08:15:34.807Z,98708.31
2019-03-13T08:18:24.716Z,98711.35
2019-03-13T08:21:18.680Z,98711.09
2019-03-13T08:24:19.353Z,98713.77
2019-03-13T08:26:58.198Z,98713.98
2019-03-13T08:29:45.757Z,98718.38
2019-03-13T08:32:35.082Z,98726.92
2019-03-13T08:35:28.693Z,98737.70
2019-03-13T08:38:10.986Z,98735.05
2019-03-13T08:41:01.802Z,98734.36
2019-03-13T08:43:52.255Z,98732.08
2019-03-13T08:46:42.443Z,98731.67
2019-03-13T08:49:39.823Z,98738.47
2019-03-13T08:52:36.890Z,98740.46
2019-03-13T08:55:29.449Z,98741.63
2019-03-13T08:58:27.260Z,98743.62
2019-03-13T09:01:19.338Z,98744.81
2019-03-13T09:04:19.874Z,98740.31
2019-03-13T09:07:10.542Z,98744.48
2019-03-13T09:09:53.014Z,98748.14
2019-03-13T09:12:48.009Z,98751.00
2019-03-13T09:15:37.803Z,98752.34
2019-03-13T09:18:38.096Z,98759.18
2019-03-13T09:21:25.952Z,98760.09
2019-03-13T09:24:23.426Z,98762.30
2019-03-13T09:27:16.830Z,98759.45
2019-03-13T09:30:10.775Z,98770.39
2019-03-13T09:32:52.907Z,98773.20
2019-03-13T09:35:40.575Z,98772.79
2019-03-13T09:38:25.652Z,98774.91
2019-03-13T09:41:19.953Z,98774.23
2019-03-13T09:44:17.193Z,98784.83
2019-03-13T09:47:26.807Z,98778.54
2019-03-13T09:50:11.502Z,98777.89
2019-03-13T09:53:03.959Z,98779.27
2019-03-13T09:55:55.558Z,98778.20
2019-03-13T09:58:46.385Z,98773.94
2019-03-13T10:01:34.736Z,98775.88
2019-03-13T10:04:26.339Z,98772.20
2019-03-13T10:07:15.545Z,98772.55
2019-03-13T10:09:55.580Z,98771.23
2019-03-13T10:12:37.407Z,98776.00
2019-03-13T10:15:15.460Z,98780.94
2019-03-13T10:17:57.747Z,98781.69
2019-03-13T10:20:47.021Z,98783.27
2019-03-13T10:23:29.457Z,98787.61
2019-03-13T10:26:33.271Z,98782.69
2019-03-13T10:29:28.394Z,98784.84
2019-03-13T10:32:13.157Z,98779.97
2019-03-13T10:35:13.876Z,98788.11
2019-03-13T10:38:20.480Z,98786.04
2019-03-13T10:41:07.810Z,98786.97
2019-03-13T10:44:09.949Z,98791.41
2019-03-13T10:46:55.748Z,98775.41
2019-03-13T10:49:35.259Z,98780.34
2019-03-13T10:52:12.996Z,98791.34
2019-03-13T10:55:10.059Z,98791.13
2019-03-13T10:58:08.244Z,98779.61
2019-03-13T11:01:18.541Z,98791.25
2019-03-13T11:04:13.526Z,98799.52
2019-03-13T11:06:55.293Z,98787.66
2019-03-13T11:09:41.302Z,98796.93
2019-03-13T11:12:28.823Z,98797.00
2019-03-13T11:15:07.855Z,98783.61
2019-03-13T11:18:05.608Z,98785.07
2019-03-13T11:20:59.399Z,98796.77
2019-03-13T11:23:53.635Z,98773.63
2019-03-13T11:26:36.011Z,98775.31
2019-03-13T11:29:33.050Z,98787.17
2019-03-13T11:32:20.858Z,98788.94
2019-03-13T11:35:14.872Z,98777.19
2019-03-13T11:38:15.934Z,98778.88
2019-03-13T11:41:10.191Z,98801.31
2019-03-13T11:44:00.239Z,98794.41
2019-03-13T11:47:10.162Z,98782.31
2019-03-13T11:50:00.799Z,98778.62
2019-03-13T11:52:50.770Z,98776.67
2019-03-13T11:55:57.469Z,98792.92
2019-03-13T11:58:58.982Z,98782.64
2019-03-13T12:01:46.376Z,98779.44
2019-03-13T12:04:25.716Z,98773.95
2019-03-13T12:07:17.337Z,98775.19
2019-03-13T12:10:12.166Z,98778.97
2019-03-13T12:12:56.398Z,98758.53
2019-03-13T12:15:59.943Z,98750.10
2019-03-13T12:18:58.106Z,98758.27
2019-03-13T12:21:45.540Z,98749.33
2019-03-13T12:24:29.162Z,98740.63
2019-03-13T12:27:20.494Z,98729.32
2019-03-13T12:30:24.743Z,98721.22
2019-03-13T12:33:15.906Z,98721.34
2019-03-13T12:36:10.542Z,98723.65
2019-03-13T12:38:55.678Z,98732.09
2019-03-13T12:41:47.324Z,98725.17
2019-03-13T12:44:42.616Z,98713.61
2019-03-13T12:47:38.042Z,98726.56
2019-03-13T12:50:23.834Z,98715.23
2019-03-13T12:53:04.601Z,98720.07
2019-03-13T12:55:55.412Z,98720.63
2019-03-13T12:58:57.197Z,98728.69
2019-03-13T13:01:55.351Z,98707.03
2019-03-13T13:04:49.459Z,98705.60
2019-03-13T13:07:49.772Z,98708.14
2019-03-13T13:10:43.028Z,98706.30
2019-03-13T13:13:42.431Z,98704.58
2019-03-13T13:16:33.295Z,98702.10
2019-03-13T13:19:06.654Z,98696.91
2019-03-13T13:21:39.423Z,98700.94
2019-03-13T13:24:11.912Z,98701.60
2019-03-13T13:26:44.413Z,98688.98
2019-03-13T13:29:17.783Z,98705.81
2019-03-13T13:31:50.612Z,98691.08
2019-03-13T13:34:23.843Z,98697.75
2019-03-13T13:36:56.908Z,98699.48
2019-03-13T13:39:30.063Z,98693.16
2019-03-13T13:42:02.551Z,98698.98
2019-03-13T13:44:35.609Z,98701.77
2019-03-13T13:47:08.571Z,98707.14
2019-03-13T13:49:41.397Z,98694.79
2019-03-13T13:52:14.950Z,98693.93
2019-03-13T13:54:48.595Z,98681.33
2019-03-13T13:57:21.724Z,98678.74
2019-03-13T13:59:54.382Z,98676.80
2019-03-13T14:02:33.862Z,98669.84
2019-03-13T14:05:07.069Z,98679.59
2019-03-13T14:07:41.581Z,98672.99
2019-03-13T14:10:14.222Z,98668.62
2019-03-13T14:12:46.156Z,98681.95
2019-03-13T14:15:18.974Z,98685.65
2019-03-13T14:17:51.791Z,98680.03
2019-03-13T14:20:24.751Z,98684.19
2019-03-13T14:22:57.168Z,98668.89
2019-03-13T14:25:29.617Z,98675.91
2019-03-13T14:28:02.055Z,98669.38
2019-03-13T14:30:34.061Z,98678.55
2019-03-13T14:33:07.996Z,98656.30
2019-03-13T14:35:40.398Z,98661.33
2019-03-13T14:38:13.482Z,98663.82
2019-03-13T14:40:46.481Z,98658.42
2019-03-13T14:43:19.861Z,98659.14
2019-03-13T14:45:52.748Z,98657.88
2019-03-13T14:48:26.482Z,98672.17
2019-03-13T14:50:59.320Z,98661.58
2019-03-13T14:53:32.082Z,98658.55
2019-03-13T14:56:05.555Z,98655.66
2019-03-13T14:58:38.975Z,98658.66
2019-03-13T15:01:11.499Z,98658.28
2019-03-13T15:03:44.832Z,98651.60
2019-03-13T15:06:16.829Z,98656.05
2019-03-13T15:08:49.716Z,98662.08
2019-03-13T15:11:22.257Z,98659.16
2019-03-13T15:13:54.951Z,98659.20
2019-03-13T15:16:26.934Z,98664.92
2019-03-13T15:18:59.525Z,98663.78
2019-03-13T15:21:32.262Z,98672.99
2019-03-13T15:24:05.138Z,98681.11
2019-03-13T15:26:37.917Z,98674.48
2019-03-13T15:29:10.450Z,98681.38
2019-03-13T15:31:42.412Z,98682.17
2019-03-13T15:34:14.920Z,98685.50
2019-03-13T15:36:46.822Z,98683.89
2019-03-13T15:39:19.180Z,98688.63
2019-03-13T15:41:51.710Z,98688.00
2019-03-13T15:44:24.942Z,98683.03
2019-03-13T15:46:57.362Z,98694.36
2019-03-13T15:49:30.240Z,98691.75
2019-03-13T15:52:03.778Z,98681.95
2019-03-13T15:54:36.378Z,98682.66
2019-03-13T15:57:09.266Z,98682.44
2019-03-13T15:59:42.268Z,98678.39
2019-03-13T16:02:14.601Z,98686.62
2019-03-13T16:04:47.102Z,98681.45
2019-03-13T16:07:19.965Z,98684.03
2019-03-13T16:09:52.504Z,98678.15
2019-03-13T16:12:25.363Z,98674.36
2019-03-13T16:14:57.787Z,98673.17
2019-03-13T16:17:30.720Z,98654.77
2019-03-13T16:20:03.549Z,98664.98
2019-03-13T16:22:37.066Z,98667.86
2019-03-13T16:25:09.678Z,98672.60
2019-03-13T16:27:42.619Z,98666.05
2019-03-13T16:30:19.032Z,98676.73
2019-03-13T16:32:51.929Z,98667.16
2019-03-13T16:35:26.476Z,98664.54
2019-03-13T16:37:59.434Z,98670.95
2019-03-13T16:40:32.459Z,98694.53
2019-03-13T16:43:04.926Z,98683.07
2019-03-13T16:45:38.676Z,98692.66
2019-03-13T16:48:12.056Z,98694.38
2019-03-13T16:50:45.013Z,98698.77
2019-03-13T16:53:18.671Z,98708.75
2019-03-13T16:55:52.939Z,98716.78
2019-03-13T16:58:26.961Z,98712.42
2019-03-13T17:00:59.674Z,98714.06
2019-03-13T17:03:33.249Z,98702.23
2019-03-13T17:06:07.386Z,98701.33
2019-03-13T17:08:41.504Z,98694.22
2019-03-13T17:11:15.359Z,98701.09
2019-03-13T17:13:49.444Z,98695.45
2019-03-13T17:16:23.683Z,98706.33
2019-03-13T17:18:57.749Z,98700.84
2019-03-13T17:21:33.095Z,98701.78
2019-03-13T17:24:07.303Z,98696.77
2019-03-13T17:26:41.364Z,98704.07
2019-03-13T17:29:15.422Z,98709.20
2019-03-13T17:31:48.726Z,98710.34
2019-03-13T17:34:23.883Z,98715.33
2019-03-13T17:36:58.198Z,98706.56
2019-03-13T17:39:33.827Z,98696.05
2019-03-13T17:42:08.381Z,98691.91
2019-03-13T17:44:42.489Z,98690.25
2019-03-13T17:47:17.217Z,98679.76
2019-03-13T17:49:51.319Z,98681.71
2019-03-13T17:52:25.531Z,98670.52
2019-03-13T17:54:59.218Z,98670.73
2019-03-13T17:57:33.495Z,98671.41
2019-03-13T18:00:07.517Z,98665.18
2019-03-13T18:02:41.019Z,98668.48
2019-03-13T18:05:13.808Z,98669.81
2019-03-13T18:07:47.780Z,98669.86
2019-03-13T18:10:21.167Z,98676.02
2019-03-13T18:12:53.122Z,98673.20
2019-03-13T18:15:25.083Z,98676.67
2019-03-13T18:17:57.484Z,98676.53
2019-03-13T18:20:30.455Z,98681.94
2019-03-13T18:23:02.873Z,98677.91
2019-03-13T18:25:35.946Z,98681.30
2019-03-13T18:28:09.522Z,98679.05
2019-03-13T18:30:42.438Z,98676.26
2019-03-13T18:33:15.804Z,98674.69
2019-03-13T18:35:49.409Z,98677.58
2019-03-13T18:38:23.567Z,98675.80
2019-03-13T18:40:55.525Z,98671.59
2019-03-13T18:43:28.066Z,98671.98
2019-03-13T18:46:01.466Z,98669.68
2019-03-13T18:48:34.321Z,98665.06
2019-03-13T18:51:06.784Z,98675.47
2019-03-13T18:53:40.625Z,98675.36
2019-03-13T18:56:13.513Z,98681.63
2019-03-13T18:58:46.430Z,98677.05
2019-03-13T19:01:19.280Z,98672.52
2019-03-13T19:03:52.131Z,98670.00
2019-03-13T19:06:24.879Z,98671.96
2019-03-13T19:08:57.374Z,98667.27
2019-03-13T19:11:30.337Z,98661.61
2019-03-13T19:14:03.377Z,98671.55
2019-03-13T19:16:36.186Z,98664.73
2019-03-13T19:19:08.635Z,98667.38
2019-03-13T19:21:41.171Z,98663.50
2019-03-13T19:24:14.150Z,98661.33
2019-03-13T19:26:47.046Z,98658.62
2019-03-13T19:29:19.478Z,98660.16
2019-03-13T19:31:54.761Z,98659.20
2019-03-13T19:34:29.780Z,98663.97
2019-03-13T19:37:02.839Z,98661.02
2019-03-13T19:39:35.691Z,98656.84
2019-03-13T19:42:07.767Z,98661.37
2019-03-13T19:44:41.166Z,98664.30
2019-03-13T19:47:13.759Z,98663.40
2019-03-13T19:49:46.261Z,98661.80
2019-03-13T19:52:20.074Z,98660.56
2019-03-13T19:54:53.384Z,98657.30
2019-03-13T19:57:26.289Z,98659.22
2019-03-13T19:59:59.269Z,98655.35
2019-03-13T20:02:31.724Z,98651.75
2019-03-13T20:05:04.117Z,98651.23
2019-03-13T20:07:36.949Z,98653.80
2019-03-13T20:10:15.534Z,98641.53
2019-03-13T20:12:49.901Z,98637.98
2019-03-13T20:15:26.757Z,98634.50
2019-03-13T20:17:59.746Z,98633.62
2019-03-13T20:20:36.141Z,98630.58
2019-03-13T20:23:08.909Z,98630.09
2019-03-13T20:25:42.776Z,98627.53
2019-03-13T20:28:15.923Z,98623.30
2019-03-13T20:30:50.718Z,98621.41
2019-03-13T20:33:24.714Z,98619.34
2019-03-13T20:35:58.482Z,98612.70
2019-03-13T20:38:31.029Z,98609.31
2019-03-13T20:41:03.811Z,98606.95
2019-03-13T20:43:37.509Z,98607.38
2019-03-13T20:46:09.916Z,98605.11
2019-03-13T20:48:43.209Z,98604.73
2019-03-13T20:51:15.666Z,98602.41
2019-03-13T20:53:48.130Z,98603.65
2019-03-13T20:56:22.040Z,98596.60
2019-03-13T20:58:54.930Z,98593.24
2019-03-13T21:01:28.433Z,98593.34
2019-03-13T21:04:01.885Z,98596.73
2019-03-13T21:06:35.501Z,98606.06
2019-03-13T21:09:10.105Z,98610.72
2019-03-13T21:11:44.027Z,98607.23
2019-03-13T21:14:17.563Z,98602.39
2019-03-13T21:16:50.481Z,98601.47
2019-03-13T21:19:22.511Z,98599.56
2019-03-13T21:21:55.951Z,98590.17
2019-03-13T21:24:29.559Z,98589.69
2019-03-13T21:27:01.971Z,98580.15
2019-03-13T21:29:35.440Z,98575.57
2019-03-13T21:32:08.562Z,98583.05
2019-03-13T21:34:42.680Z,98572.98
2019-03-13T21:37:16.380Z,98573.88
2019-03-13T21:39:50.497Z,98578.06
2019-03-13T21:42:24.408Z,98576.08
2019-03-13T21:44:58.748Z,98576.81
2019-03-13T21:47:32.431Z,98578.45
2019-03-13T21:50:07.979Z,98579.22
2019-03-13T21:52:43.014Z,98565.98
2019-03-13T21:55:16.715Z,98561.98
2019-03-13T21:57:52.210Z,98561.97
2019-03-13T22:00:27.103Z,98562.48
2019-03-13T22:03:01.036Z,98557.64
2019-03-13T22:05:35.121Z,98566.50
2019-03-13T22:08:08.513Z,98566.50
2019-03-13T22:10:42.314Z,98555.05
2019-03-13T22:13:16.476Z,98557.77
2019-03-13T22:15:49.972Z,98553.53
2019-03-13T22:18:23.759Z,98551.87
2019-03-13T22:20:57.419Z,98551.90
2019-03-13T22:23:31.433Z,98549.25
2019-03-13T22:26:05.663Z,98549.34
2019-03-13T22:28:39.724Z,98545.85
2019-03-13T22:31:13.513Z,98545.55
2019-03-13T22:33:47.626Z,98542.05
2019-03-13T22:36:20.999Z,98542.39
2019-03-13T22:38:54.281Z,98534.26
2019-03-13T22:41:27.900Z,98538.09
2019-03-13T22:44:01.951Z,98531.63
2019-03-13T22:46:35.915Z,98528.00
2019-03-13T22:49:10.356Z,98533.13
2019-03-13T22:51:43.933Z,98525.01
2019-03-13T22:54:20.222Z,98522.94
2019-03-13T22:56:54.716Z,98522.42
2019-03-13T22:59:28.819Z,98519.86
2019-03-13T23:02:06.247Z,98520.34
2019-03-13T23:04:40.618Z,98522.48
2019-03-13T23:07:17.014Z,98525.23
2019-03-13T23:09:50.545Z,98523.92
2019-03-13T23:12:25.780Z,98524.13
2019-03-13T23:15:00.419Z,98516.81
2019-03-13T23:17:36.081Z,98517.98
2019-03-13T23:20:09.789Z,98510.67
2019-03-13T23:22:45.308Z,98510.73
2019-03-13T23:25:19.539Z,98510.72
2019-03-13T23:27:53.383Z,98510.13
2019-03-13T23:30:27.227Z,98507.16
2019-03-13T23:33:00.988Z,98504.16
2019-03-13T23:35:35.243Z,98498.39
2019-03-13T23:38:09.458Z,98506.80
2019-03-13T23:40:44.094Z,98504.86
2019-03-13T23:43:18.209Z,98497.68
2019-03-13T23:45:52.025Z,98502.55
2019-03-13T23:48:26.215Z,98505.27
2019-03-13T23:51:00.623Z,98499.00
2019-03-13T23:53:34.654Z,98499.70
2019-03-13T23:56:08.660Z,98501.50
2019-03-13T23:58:42.347Z,98498.48
